Time;durP1;ratioP1;P1;durP2;ratioP2;P2;SDS_P1;SDS_P2;PMS_P1;PMS_P2;Temp;Humidity;BMP_temperature;BMP_pressure;BME280_temperature;BME280_humidity;BME280_pressure;Samples;Min_cycle;Max_cycle;Signal;HPM_P1;HPM_P2
2022/09/04 00:02:16;;;;;;;10.40;8.57;;;;;;;16.05;72.09;101243.66;5025048;28;20116;-67
2022/09/04 00:04:58;;;;;;;10.43;8.32;;;;;;;16.05;71.98;101246.38;5007583;28;20128;-66
2022/09/04 00:07:28;;;;;;;11.57;7.70;;;;;;;16.01;72.35;101249.53;5008473;28;20794;-68
2022/09/04 00:10:17;;;;;;;10.77;8.55;;;;;;;16.03;72.02;101250.25;5008550;28;20050;-66
2022/09/04 00:13:04;;;;;;;14.85;9.15;;;;;;;16.00;72.37;101250.56;5024783;28;20519;-66
2022/09/04 00:15:36;;;;;;;14.02;9.55;;;;;;;15.95;73.46;101258.31;5018241;28;20041;-66
2022/09/04 00:18:07;;;;;;;11.27;9.18;;;;;;;15.93;73.22;101258.44;5018044;28;20469;-66
2022/09/04 00:20:46;;;;;;;14.93;9.95;;;;;;;15.90;72.99;101264.22;5027533;28;20045;-65
2022/09/04 00:23:35;;;;;;;13.98;9.27;;;;;;;15.85;73.98;101262.88;5027277;28;20636;-66
2022/09/04 00:26:25;;;;;;;16.80;9.07;;;;;;;15.77;73.98;101261.69;5026947;28;20096;-65
2022/09/04 00:28:59;;;;;;;13.38;9.23;;;;;;;15.78;74.44;101262.56;5026591;28;20036;-66
2022/09/04 00:31:35;;;;;;;11.82;8.88;;;;;;;15.76;73.63;101264.53;5026268;28;20068;-69
2022/09/04 00:34:16;;;;;;;10.35;8.40;;;;;;;15.70;74.11;101260.47;5026480;28;20041;-66
2022/09/04 00:36:46;;;;;;;10.57;8.32;;;;;;;15.69;73.95;101266.97;5026895;28;20061;-66
2022/09/04 00:39:17;;;;;;;14.07;10.07;;;;;;;15.58;75.52;101264.25;5027231;28;20083;-65
2022/09/04 00:41:57;;;;;;;13.60;10.40;;;;;;;15.43;77.65;101260.09;5026590;28;20037;-66
2022/09/04 00:44:48;;;;;;;13.80;10.38;;;;;;;15.39;75.97;101267.72;5026905;28;20041;-67
2022/09/04 00:47:40;;;;;;;15.82;8.52;;;;;;;15.43;74.34;101269.19;5011407;28;20051;-66
2022/09/04 00:50:06;;;;;;;10.45;8.32;;;;;;;15.43;74.14;101258.22;5025793;28;20506;-66
2022/09/04 00:53:04;;;;;;;12.18;9.10;;;;;;;15.44;73.83;101262.72;5029256;28;20052;-65
2022/09/04 00:55:49;;;;;;;13.00;9.43;;;;;;;15.41;75.08;101270.34;5038591;28;20103;-65
2022/09/04 00:58:38;;;;;;;14.15;9.38;;;;;;;15.41;74.21;101273.06;5037996;28;20045;-66
2022/09/04 01:01:04;;;;;;;10.75;8.77;;;;;;;15.39;74.87;101272.31;5026105;28;20443;-65
2022/09/04 01:03:45;;;;;;;11.85;9.20;;;;;;;15.38;75.07;101284.28;5027673;28;20046;-66
2022/09/04 01:06:41;;;;;;;11.32;9.13;;;;;;;15.41;73.87;101284.03;5031223;28;20033;-65
2022/09/04 01:09:36;;;;;;;12.63;9.40;;;;;;;15.33;75.23;101281.94;5030546;28;20073;-66
2022/09/04 01:12:24;;;;;;;12.30;9.27;;;;;;;15.27;75.22;101283.34;5031087;28;20047;-66
2022/09/04 01:15:13;;;;;;;11.60;9.02;;;;;;;15.28;74.12;101282.34;5030590;28;20112;-66
2022/09/04 01:18:03;;;;;;;11.55;9.07;;;;;;;15.23;74.73;101290.09;5030026;28;20499;-66
2022/09/04 01:20:34;;;;;;;10.65;9.40;;;;;;;15.15;76.10;101287.13;5030979;28;20091;-66
2022/09/04 01:23:21;;;;;;;9.15;8.10;;;;;;;15.16;74.42;101290.75;5030237;28;20124;-65
2022/09/04 01:26:05;;;;;;;12.10;8.90;;;;;;;15.14;75.23;101298.22;5030802;28;20091;-65
2022/09/04 01:29:02;;;;;;;11.05;8.65;;;;;;;15.12;74.67;101308.44;5030794;28;20128;-66
2022/09/04 01:31:36;;;;;;;11.45;8.75;;;;;;;15.10;74.82;101303.06;5029587;28;20045;-66
2022/09/04 01:34:20;;;;;;;11.45;9.05;;;;;;;15.07;75.02;101307.97;5028354;28;20048;-65
2022/09/04 01:36:59;;;;;;;13.23;9.57;;;;;;;15.00;77.07;101318.56;5030188;28;20544;-66
2022/09/04 01:39:29;;;;;;;13.70;9.30;;;;;;;14.91;78.01;101311.09;5030873;28;20037;-69
2022/09/04 01:42:21;;;;;;;11.55;9.80;;;;;;;14.93;75.86;101311.88;5030739;28;20041;-69
2022/09/04 01:44:48;;;;;;;12.25;9.20;;;;;;;14.92;75.95;101313.75;5029403;28;20134;-66
2022/09/04 01:47:39;;;;;;;10.82;9.10;;;;;;;14.91;76.10;101316.59;5029888;28;20026;-65
2022/09/04 01:50:11;;;;;;;14.63;9.25;;;;;;;14.88;75.80;101317.72;5029849;28;20045;-65
2022/09/04 01:52:45;;;;;;;12.23;9.23;;;;;;;14.89;76.53;101316.72;5030006;28;20498;-66
2022/09/04 01:55:36;;;;;;;13.38;9.20;;;;;;;14.82;75.97;101309.13;5030314;28;20100;-66
2022/09/04 01:58:13;;;;;;;11.45;10.05;;;;;;;14.80;76.66;101314.75;5010528;28;20797;-68
2022/09/04 02:01:20;;;;;;;12.98;9.85;;;;;;;14.74;77.18;101324.34;5020637;28;20041;-68
2022/09/04 02:04:06;;;;;;;15.95;10.80;;;;;;;14.67;77.90;101325.84;5013457;28;20132;-66
2022/09/04 02:06:45;;;;;;;11.10;9.00;;;;;;;14.59;78.37;101336.53;5010243;28;20033;-68
2022/09/04 02:09:36;;;;;;;12.27;10.20;;;;;;;14.60;77.16;101335.56;5010145;28;20072;-67
2022/09/04 02:12:22;;;;;;;14.68;9.00;;;;;;;14.61;76.79;101340.03;5023102;28;20103;-68
2022/09/04 02:15:32;;;;;;;9.50;8.10;;;;;;;14.63;75.72;101338.03;5007906;28;20041;-67
2022/09/04 02:18:31;;;;;;;10.75;8.65;;;;;;;14.62;76.20;101340.91;5011788;28;20041;-66
2022/09/04 02:21:31;;;;;;;13.32;8.80;;;;;;;14.63;75.31;101343.50;5029058;28;20104;-66
2022/09/04 02:24:29;;;;;;;13.27;9.15;;;;;;;14.60;75.76;101342.91;5008424;28;20493;-65
2022/09/04 02:27:30;;;;;;;10.88;9.07;;;;;;;14.53;77.31;101345.25;5023990;28;20072;-69
2022/09/04 02:29:58;;;;;;;11.52;8.82;;;;;;;14.52;77.11;101357.22;5028234;28;20064;-66
2022/09/04 02:32:37;;;;;;;12.60;9.07;;;;;;;14.47;77.45;101351.22;5025625;28;20504;-68
2022/09/04 02:35:28;;;;;;;11.45;8.45;;;;;;;14.44;76.84;101345.97;5010228;28;20367;-65
2022/09/04 02:38:32;;;;;;;13.60;9.35;;;;;;;14.39;78.27;101356.41;5010487;28;20049;-66
2022/09/04 02:41:10;;;;;;;14.77;10.85;;;;;;;14.26;79.71;101354.66;5017563;28;20065;-65
2022/09/04 02:43:56;;;;;;;17.42;11.07;;;;;;;14.23;79.96;101354.91;5009524;28;20736;-66
2022/09/04 02:46:59;;;;;;;14.90;9.90;;;;;;;14.31;77.15;101357.03;5010959;28;20042;-66
2022/09/04 02:49:29;;;;;;;11.25;8.60;;;;;;;14.32;77.52;101358.78;5009047;28;20145;-68
2022/09/04 02:52:32;;;;;;;15.52;11.10;;;;;;;14.29;78.84;101359.03;5013789;28;20037;-67
2022/09/04 02:55:43;;;;;;;16.15;11.85;;;;;;;14.30;78.76;101366.25;5029063;28;20041;-66
2022/09/04 02:58:31;;;;;;;14.18;9.98;;;;;;;14.25;78.36;101369.34;5009169;28;20398;-65
2022/09/04 03:01:09;;;;;;;15.15;11.27;;;;;;;14.26;78.56;101370.22;5021691;28;20037;-66
2022/09/04 03:03:45;;;;;;;15.88;10.48;;;;;;;14.25;77.61;101369.34;5014326;28;20064;-66
2022/09/04 03:06:19;;;;;;;15.73;11.50;;;;;;;14.21;78.65;101367.84;5009132;28;20390;-65
2022/09/04 03:08:52;;;;;;;15.30;10.35;;;;;;;14.20;77.93;101376.19;5009080;28;20099;-65
2022/09/04 03:11:35;;;;;;;15.85;11.30;;;;;;;14.19;77.81;101378.06;5014703;28;20500;-66
2022/09/04 03:14:46;;;;;;;15.68;11.38;;;;;;;14.16;78.17;101381.00;5008938;28;20532;-66
2022/09/04 03:17:22;;;;;;;13.88;10.73;;;;;;;14.08;79.76;101372.53;5011638;28;20120;-66
2022/09/04 03:20:02;;;;;;;15.73;11.88;;;;;;;14.02;81.73;101373.91;5028313;28;20048;-66
2022/09/04 03:22:33;;;;;;;16.42;11.77;;;;;;;13.99;80.62;101381.50;5028326;28;20046;-69
2022/09/04 03:25:08;;;;;;;17.35;12.35;;;;;;;14.03;79.49;101382.97;5028599;28;20118;-65
2022/09/04 03:27:34;;;;;;;15.70;11.43;;;;;;;14.05;78.94;101389.22;5008725;28;20042;-65
2022/09/04 03:30:09;;;;;;;16.42;10.35;;;;;;;14.06;78.44;101388.22;5013154;28;20024;-66
2022/09/04 03:32:50;;;;;;;11.60;10.15;;;;;;;14.06;78.19;101380.00;5027432;28;20045;-66
2022/09/04 03:35:32;;;;;;;15.60;10.02;;;;;;;14.03;78.44;101382.97;5028497;28;20037;-66
2022/09/04 03:38:19;;;;;;;12.18;9.73;;;;;;;13.99;78.74;101390.56;5026722;28;20599;-66
2022/09/04 03:40:56;;;;;;;11.98;10.18;;;;;;;13.97;79.63;101389.81;5028303;28;20045;-66
2022/09/04 03:43:54;;;;;;;14.10;10.40;;;;;;;13.99;78.07;101381.50;5028516;28;20041;-67
2022/09/04 03:46:35;;;;;;;14.90;9.32;;;;;;;13.99;78.18;101384.22;5019637;28;20060;-66
2022/09/04 03:49:09;;;;;;;13.70;9.90;;;;;;;13.97;79.01;101395.28;5010442;28;20046;-65
2022/09/04 03:51:50;;;;;;;14.82;10.95;;;;;;;13.93;78.50;101388.28;5009937;28;20053;-67
2022/09/04 03:54:41;;;;;;;12.63;9.98;;;;;;;13.93;78.36;101392.91;5027979;28;20045;-66
2022/09/04 03:57:15;;;;;;;12.20;9.60;;;;;;;13.94;77.81;101400.09;5027428;28;20041;-67
2022/09/04 04:00:11;;;;;;;11.75;9.82;;;;;;;13.97;77.49;101402.59;5026838;28;20160;-66
2022/09/04 04:03:01;;;;;;;13.75;10.50;;;;;;;13.93;78.77;101399.22;5021250;28;20029;-66
2022/09/04 04:05:36;;;;;;;12.20;10.10;;;;;;;13.91;78.58;101403.09;5008064;28;20120;-66
2022/09/04 04:08:41;;;;;;;11.85;9.10;;;;;;;13.91;77.88;101403.97;5007899;28;20050;-66
2022/09/04 04:11:38;;;;;;;12.15;9.63;;;;;;;13.90;78.22;101399.50;5006786;28;20042;-66
2022/09/04 04:14:42;;;;;;;13.20;9.95;;;;;;;13.90;77.99;101407.69;5007872;28;20153;-66
2022/09/04 04:17:32;;;;;;;14.73;9.57;;;;;;;13.91;78.18;101411.31;5008395;28;20029;-66
2022/09/04 04:20:23;;;;;;;10.98;9.65;;;;;;;13.87;78.53;101416.13;5007900;28;20049;-66
2022/09/04 04:23:28;;;;;;;12.77;9.68;;;;;;;13.83;79.16;101419.22;5018786;28;20067;-66
2022/09/04 04:26:06;;;;;;;15.32;9.73;;;;;;;13.80;79.21;101414.84;5027528;28;20061;-67
2022/09/04 04:28:58;;;;;;;12.40;9.52;;;;;;;13.81;79.14;101416.63;5027259;28;20073;-66
2022/09/04 04:32:09;;;;;;;13.60;8.90;;;;;;;13.82;78.46;101423.81;5027007;28;20056;-66
2022/09/04 04:35:03;;;;;;;11.32;8.80;;;;;;;13.83;78.43;101431.03;5007298;28;20084;-65
2022/09/04 04:37:54;;;;;;;14.23;9.32;;;;;;;13.81;80.30;101433.03;5004756;28;20410;-66
2022/09/04 04:40:54;;;;;;;14.32;10.18;;;;;;;13.77;80.16;101435.13;5008101;28;20045;-66
2022/09/04 04:43:37;;;;;;;10.80;9.70;;;;;;;13.71;80.75;101432.84;5021300;28;20041;-66
2022/09/04 04:46:15;;;;;;;16.13;10.40;;;;;;;13.70;80.07;101435.69;5024855;28;20052;-67
2022/09/04 04:48:51;;;;;;;16.30;8.98;;;;;;;13.68;80.42;101437.69;5026182;28;20120;-66
2022/09/04 04:51:16;;;;;;;12.85;9.77;;;;;;;13.65;80.37;101441.50;5025471;28;20409;-66
2022/09/04 04:53:56;;;;;;;12.15;9.82;;;;;;;13.64;80.66;101441.63;5026800;28;20033;-66
2022/09/04 04:56:22;;;;;;;11.88;9.60;;;;;;;13.60;80.80;101438.25;5027187;28;20033;-66
2022/09/04 04:59:24;;;;;;;13.65;10.32;;;;;;;13.64;81.29;101447.97;5026964;28;20099;-67
2022/09/04 05:02:13;;;;;;;15.13;10.98;;;;;;;13.64;81.20;101441.63;5022899;28;20030;-67
2022/09/04 05:05:01;;;;;;;14.40;9.35;;;;;;;13.66;79.86;101453.31;5005473;28;20061;-66
2022/09/04 05:07:51;;;;;;;13.77;8.77;;;;;;;13.69;79.48;101453.09;5007211;28;20077;-66
2022/09/04 05:10:46;;;;;;;12.30;8.93;;;;;;;13.72;79.42;101455.59;5007677;28;20140;-66
2022/09/04 05:13:38;;;;;;;11.30;8.60;;;;;;;13.70;80.04;101458.44;5005911;28;20473;-66
2022/09/04 05:16:27;;;;;;;15.57;8.95;;;;;;;13.72;80.02;101459.22;5015720;28;20385;-66
2022/09/04 05:18:58;;;;;;;11.52;8.40;;;;;;;13.73;80.83;101474.63;5022880;28;20441;-66
2022/09/04 05:21:35;;;;;;;13.35;9.32;;;;;;;13.73;80.86;101466.41;5027479;28;20052;-66
2022/09/04 05:24:07;;;;;;;13.30;9.23;;;;;;;13.75;80.90;101479.97;5014969;28;20042;-66
2022/09/04 05:26:50;;;;;;;14.38;10.68;;;;;;;13.74;80.17;101478.22;5007069;28;20129;-67
2022/09/04 05:29:18;;;;;;;;;;;;;;;13.77;79.09;101484.34;5021596;28;20041;-67
2022/09/04 05:31:57;;;;;;;11.70;8.23;;;;;;;13.76;79.72;101487.19;5008599;28;20361;-66
2022/09/04 05:34:36;;;;;;;16.15;8.80;;;;;;;13.81;80.93;101497.78;5007571;28;20053;-67
2022/09/04 05:37:57;;;;;;;13.25;8.85;;;;;;;13.88;79.97;101494.47;5007121;28;20045;-67
2022/09/04 05:40:56;;;;;;;16.45;9.00;;;;;;;13.93;81.01;101503.19;4985584;28;20031;-67
2022/09/04 05:44:09;;;;;;;15.00;9.02;;;;;;;13.96;81.30;101493.88;5007451;28;20042;-66
2022/09/04 05:47:08;;;;;;;15.27;9.52;;;;;;;13.96;80.49;101499.34;5005129;28;20132;-65
2022/09/04 05:49:55;;;;;;;13.40;8.88;;;;;;;14.00;81.40;101512.69;5006629;28;20486;-66
2022/09/04 05:52:57;;;;;;;15.73;9.57;;;;;;;14.04;81.85;101516.06;5018848;28;20045;-66
2022/09/04 05:55:49;;;;;;;11.75;8.27;;;;;;;14.14;80.67;101521.69;5030881;28;20112;-66
2022/09/04 05:58:33;;;;;;;11.07;8.88;;;;;;;14.20;80.43;101527.56;5019640;28;20042;-66
2022/09/04 06:01:21;;;;;;;13.68;9.27;;;;;;;14.27;80.49;101523.38;5022235;28;20040;-66
2022/09/04 06:03:56;;;;;;;17.13;10.27;;;;;;;14.33;82.56;101524.75;5014928;28;20058;-66
2022/09/04 06:06:56;;;;;;;14.48;10.70;;;;;;;14.35;84.11;101524.63;5010883;28;20044;-66
2022/09/04 06:09:39;;;;;;;14.68;9.95;;;;;;;14.44;82.84;101533.00;4973920;28;20158;-66
2022/09/04 06:12:13;;;;;;;16.00;9.43;;;;;;;14.53;82.20;101534.19;5010794;28;20496;-66
2022/09/04 06:14:54;;;;;;;14.80;9.38;;;;;;;14.62;81.82;101529.88;5010910;28;20601;-66
2022/09/04 06:17:35;;;;;;;15.73;8.82;;;;;;;14.70;80.78;101522.78;5028385;28;20044;-67
2022/09/04 06:20:18;;;;;;;19.33;11.77;;;;;;;14.82;85.64;101540.09;5030062;28;20032;-65
2022/09/04 06:23:32;;;;;;;15.68;10.60;;;;;;;14.90;83.41;101529.41;5029147;28;20052;-66
2022/09/04 06:26:19;;;;;;;17.40;11.65;;;;;;;15.05;85.95;101539.16;5011454;28;20080;-67
2022/09/04 06:28:50;;;;;;;20.17;12.05;;;;;;;15.18;86.64;101541.78;5009848;28;20557;-66
2022/09/04 06:31:18;;;;;;;14.13;9.20;;;;;;;15.25;82.48;101543.03;5010745;28;20367;-66
2022/09/04 06:34:04;;;;;;;20.15;12.45;;;;;;;15.36;84.76;101535.81;5023262;28;20033;-66
2022/09/04 06:36:29;;;;;;;16.35;10.73;;;;;;;15.40;84.67;101543.66;5028146;28;20485;-66
2022/09/04 06:39:17;;;;;;;18.13;13.50;;;;;;;15.48;85.38;101548.50;5029615;28;20103;-70
2022/09/04 06:41:51;;;;;;;15.82;12.27;;;;;;;15.55;86.41;101544.25;5016474;28;20080;-65
2022/09/04 06:44:39;;;;;;;18.67;14.20;;;;;;;15.67;87.63;101554.28;5008793;28;20397;-67
2022/09/04 06:47:20;;;;;;;13.75;10.55;;;;;;;15.73;83.26;101552.88;5028745;28;20033;-65
2022/09/04 06:50:07;;;;;;;21.20;14.10;;;;;;;15.82;87.13;101547.50;5009199;28;20481;-66
2022/09/04 06:52:46;;;;;;;19.70;14.40;;;;;;;15.90;86.22;101551.47;5018434;28;20425;-66
2022/09/04 06:55:43;;;;;;;26.02;16.85;;;;;;;16.02;88.60;101553.19;5009500;28;20080;-66
2022/09/04 06:58:22;;;;;;;18.13;13.43;;;;;;;16.11;84.90;101554.28;5009242;28;20129;-65
2022/09/04 07:00:59;;;;;;;27.08;17.63;;;;;;;16.20;88.35;101551.63;5018901;28;20369;-66
2022/09/04 07:03:56;;;;;;;22.25;16.58;;;;;;;16.31;87.42;101556.19;5028281;28;20457;-70
2022/09/04 07:06:46;;;;;;;22.35;16.33;;;;;;;16.39;87.62;101550.94;5028225;28;20402;-67
2022/09/04 07:09:25;;;;;;;25.30;16.52;;;;;;;16.53;88.70;101545.13;5028613;28;20124;-66
2022/09/04 07:12:11;;;;;;;27.33;18.45;;;;;;;16.62;88.52;101554.44;5024509;28;20433;-66
2022/09/04 07:15:14;;;;;;;22.00;14.98;;;;;;;16.68;85.73;101556.66;5008166;28;20046;-68
2022/09/04 07:18:14;;;;;;;24.95;17.30;;;;;;;16.82;87.77;101559.09;5008925;28;20026;-66
2022/09/04 07:21:14;;;;;;;26.75;17.23;;;;;;;16.96;86.91;101570.75;5015605;28;20037;-68
2022/09/04 07:23:49;;;;;;;24.50;18.27;;;;;;;17.08;87.91;101570.56;5028451;28;20145;-66
2022/09/04 07:26:41;;;;;;;27.25;18.17;;;;;;;17.20;87.74;101574.09;5025763;28;20037;-66
2022/09/04 07:29:34;;;;;;;23.40;17.43;;;;;;;17.38;86.59;101579.84;5008962;28;20037;-66
2022/09/04 07:32:21;;;;;;;26.92;17.52;;;;;;;17.52;85.85;101570.34;5009256;28;20088;-66
2022/09/04 07:34:58;;;;;;;28.70;18.55;;;;;;;17.66;86.23;101580.09;5006942;28;20030;-66
2022/09/04 07:37:35;;;;;;;24.77;15.65;;;;;;;17.77;85.81;101586.41;5009175;28;20038;-67
2022/09/04 07:40:21;;;;;;;27.35;17.30;;;;;;;17.90;85.02;101585.28;5009525;28;20576;-67
2022/09/04 07:42:47;;;;;;;21.63;15.65;;;;;;;18.05;84.98;101592.16;5028176;28;20041;-66
2022/09/04 07:45:49;;;;;;;22.77;15.57;;;;;;;18.20;84.02;101598.97;5027273;28;20543;-65
2022/09/04 07:48:36;;;;;;;21.10;15.43;;;;;;;18.40;83.68;101597.13;5027368;28;20045;-65
2022/09/04 07:51:21;;;;;;;21.50;14.15;;;;;;;18.52;82.88;101595.97;5027992;28;20038;-66
2022/09/04 07:54:17;;;;;;;20.38;14.23;;;;;;;18.63;82.13;101605.09;5027815;28;20041;-66
2022/09/04 07:57:25;;;;;;;20.63;14.00;;;;;;;18.74;82.21;101594.81;5027582;28;20108;-66
2022/09/04 08:00:16;;;;;;;20.65;14.75;;;;;;;18.91;82.83;101600.63;5027598;28;20045;-66
2022/09/04 08:03:19;;;;;;;20.65;13.98;;;;;;;19.02;81.22;101612.34;5026931;28;20106;-66
2022/09/04 08:05:50;;;;;;;;;;;;;;;19.11;80.53;101608.72;5028204;28;20103;-67
2022/09/04 08:08:44;;;;;;;20.65;13.60;;;;;;;19.25;80.49;101599.09;5027806;28;19968;-66
2022/09/04 08:11:21;;;;;;;19.85;13.95;;;;;;;19.40;79.57;101609.66;5019615;28;20037;-67
2022/09/04 08:14:03;;;;;;;28.25;14.35;;;;;;;19.54;79.61;101610.06;5007217;28;20034;-66
2022/09/04 08:16:37;;;;;;;20.48;14.77;;;;;;;19.69;78.97;101612.38;5023217;28;20527;-66
2022/09/04 08:19:19;;;;;;;22.65;14.13;;;;;;;19.79;79.57;101615.94;5025522;28;20073;-66
2022/09/04 08:21:46;;;;;;;19.02;12.85;;;;;;;19.88;77.89;101617.81;5027636;28;20212;-65
2022/09/04 08:24:31;;;;;;;19.05;13.82;;;;;;;20.04;77.92;101623.50;5027005;28;20045;-66
2022/09/04 08:27:14;;;;;;;19.23;14.23;;;;;;;20.25;77.12;101625.16;5027578;28;20469;-66
2022/09/04 08:30:04;;;;;;;22.40;14.90;;;;;;;20.43;75.52;101622.44;5026465;28;20029;-65
2022/09/04 08:32:38;;;;;;;16.63;12.55;;;;;;;20.64;75.40;101626.63;5010297;28;20658;-66
2022/09/04 08:35:20;;;;;;;18.92;14.13;;;;;;;20.78;74.24;101629.88;5027612;28;20046;-66
2022/09/04 08:38:20;;;;;;;22.67;14.02;;;;;;;20.92;74.10;101632.09;5027296;28;20551;-66
2022/09/04 08:41:24;;;;;;;18.25;13.20;;;;;;;21.12;73.99;101633.66;5027265;28;20499;-66
2022/09/04 08:44:05;;;;;;;19.85;12.95;;;;;;;21.27;73.14;101636.72;5026637;28;20041;-65
2022/09/04 08:47:12;;;;;;;23.05;14.88;;;;;;;21.37;74.09;101640.25;5026411;28;20056;-65
2022/09/04 08:49:52;;;;;;;19.38;13.25;;;;;;;21.53;71.97;101645.03;5007088;28;20050;-67
2022/09/04 08:52:44;;;;;;;18.80;13.15;;;;;;;21.61;70.87;101635.91;5014434;28;20037;-66
2022/09/04 08:55:24;;;;;;;17.27;11.73;;;;;;;21.85;71.41;101644.34;5027225;28;20098;-67
2022/09/04 08:58:18;;;;;;;17.65;11.55;;;;;;;22.12;71.88;101648.00;5025455;28;20400;-65
2022/09/04 09:00:54;;;;;;;18.02;12.25;;;;;;;22.39;69.87;101642.19;5013124;28;20114;-66
2022/09/04 09:04:04;;;;;;;13.77;10.55;;;;;;;22.73;69.48;101648.66;5016708;28;20057;-66
2022/09/04 09:06:58;;;;;;;15.63;10.25;;;;;;;23.16;68.50;101645.59;5027044;28;20576;-66
2022/09/04 09:10:04;;;;;;;14.95;9.60;;;;;;;23.65;67.41;101641.94;5023493;28;20137;-66
2022/09/04 09:13:00;;;;;;;11.45;9.40;;;;;;;24.04;66.89;101643.88;5007153;28;20073;-66
2022/09/04 09:15:25;;;;;;;17.67;12.50;;;;;;;24.28;61.33;101643.75;5012811;28;20571;-66
2022/09/04 09:17:54;;;;;;;15.10;10.40;;;;;;;24.50;61.41;101636.56;5013154;28;20038;-68
2022/09/04 09:20:27;;;;;;;12.85;8.82;;;;;;;24.83;63.69;101637.19;5026979;28;20038;-66
2022/09/04 09:23:14;;;;;;;12.77;8.30;;;;;;;25.06;61.65;101639.13;5027210;28;20033;-66
2022/09/04 09:25:50;;;;;;;11.27;8.05;;;;;;;25.29;61.13;101634.41;5011001;28;20442;-66
2022/09/04 09:28:44;;;;;;;10.57;7.07;;;;;;;25.59;57.44;101628.88;5013122;28;20101;-66
2022/09/04 09:31:39;;;;;;;10.27;7.28;;;;;;;25.90;59.12;101620.38;5029571;28;20546;-66
2022/09/04 09:34:24;;;;;;;11.10;6.40;;;;;;;26.12;59.07;101630.53;5014559;28;20111;-65
2022/09/04 09:37:17;;;;;;;7.55;5.18;;;;;;;26.42;56.75;101627.69;5011825;28;20045;-66
2022/09/04 09:40:20;;;;;;;5.68;4.90;;;;;;;26.57;56.18;101622.94;5010753;28;20074;-66
2022/09/04 09:42:54;;;;;;;7.25;4.95;;;;;;;26.80;53.19;101630.28;5011167;28;20050;-66
2022/09/04 09:45:56;;;;;;;6.35;5.07;;;;;;;26.80;54.50;101628.34;5029151;28;20622;-66
2022/09/04 09:48:43;;;;;;;7.03;4.70;;;;;;;27.07;53.88;101626.69;5030145;28;20037;-65
2022/09/04 09:51:37;;;;;;;7.28;5.03;;;;;;;27.20;52.67;101626.84;5030395;28;20037;-66
2022/09/04 09:54:39;;;;;;;8.85;5.03;;;;;;;27.58;52.88;101628.44;5030095;28;20066;-65
2022/09/04 09:57:25;;;;;;;6.13;4.97;;;;;;;27.85;51.08;101630.38;5029738;28;20066;-66
2022/09/04 10:00:11;;;;;;;7.57;5.18;;;;;;;28.05;51.06;101626.81;5028700;28;20061;-66
2022/09/04 10:03:01;;;;;;;6.47;4.63;;;;;;;28.57;50.67;101634.59;5010421;28;20037;-65
2022/09/04 10:05:38;;;;;;;6.78;4.45;;;;;;;28.69;48.79;101632.91;5010362;28;20438;-66
2022/09/04 10:08:28;;;;;;;6.38;3.38;;;;;;;28.82;50.14;101631.19;5028197;28;20416;-66
2022/09/04 10:11:22;;;;;;;8.73;3.65;;;;;;;29.13;48.28;101623.06;5026474;28;20516;-65
2022/09/04 10:13:56;;;;;;;6.40;2.97;;;;;;;29.61;46.61;101628.50;5010220;28;20042;-66
2022/09/04 10:16:41;;;;;;;6.63;2.90;;;;;;;29.81;45.58;101634.06;5024754;28;20059;-66
2022/09/04 10:19:45;;;;;;;3.97;3.33;;;;;;;30.10;46.15;101629.00;5013730;28;20041;-66
2022/09/04 10:22:38;;;;;;;4.45;3.08;;;;;;;30.44;45.07;101634.28;5019175;28;20037;-66
2022/09/04 10:25:34;;;;;;;7.93;3.65;;;;;;;30.77;44.39;101633.28;5027660;28;20112;-65
2022/09/04 10:28:17;;;;;;;5.10;3.53;;;;;;;30.74;42.89;101639.34;5009934;28;20133;-67
2022/09/04 10:31:23;;;;;;;5.30;2.65;;;;;;;30.64;42.72;101631.41;5018275;28;20120;-66
2022/09/04 10:34:06;;;;;;;9.30;2.60;;;;;;;30.94;43.78;101631.66;5028683;28;20041;-67
2022/09/04 10:37:19;;;;;;;3.38;2.55;;;;;;;30.95;42.14;101635.31;5028812;28;20037;-66
2022/09/04 10:40:34;;;;;;;2.35;1.80;;;;;;;31.10;40.65;101640.59;5029217;28;20555;-66
2022/09/04 10:43:18;;;;;;;3.13;1.73;;;;;;;31.30;40.11;101640.50;5009679;28;20087;-66
2022/09/04 10:45:56;;;;;;;2.47;1.90;;;;;;;31.18;37.19;101629.09;5017938;28;20033;-66
2022/09/04 10:48:53;;;;;;;4.07;2.38;;;;;;;31.39;38.93;101630.69;5029149;28;20441;-66
2022/09/04 10:51:43;;;;;;;2.38;2.03;;;;;;;31.29;39.00;101634.03;5029290;28;20069;-65
2022/09/04 10:54:29;;;;;;;2.30;2.10;;;;;;;31.20;40.61;101638.19;5028570;28;20481;-66
2022/09/04 10:57:21;;;;;;;3.53;2.13;;;;;;;30.96;39.39;101637.03;5029465;28;20381;-70
2022/09/04 11:00:06;;;;;;;5.25;2.55;;;;;;;30.71;38.65;101632.22;5027784;28;20082;-66
2022/09/04 11:03:12;;;;;;;4.95;2.15;;;;;;;30.57;41.24;101627.75;5008667;28;20425;-66
2022/09/04 11:06:01;;;;;;;4.93;2.25;;;;;;;30.58;39.02;101629.47;5009183;28;20044;-66
2022/09/04 11:09:00;;;;;;;2.28;1.90;;;;;;;30.68;40.56;101635.47;5009279;28;20501;-65
2022/09/04 11:11:51;;;;;;;4.15;2.25;;;;;;;30.69;40.40;101631.56;5009687;28;20129;-67
2022/09/04 11:14:44;;;;;;;4.53;1.80;;;;;;;30.42;39.53;101633.66;5008977;28;20045;-65
2022/09/04 11:17:51;;;;;;;5.75;2.28;;;;;;;30.51;41.26;101634.28;5009363;28;20033;-67
2022/09/04 11:20:28;;;;;;;5.65;2.65;;;;;;;30.51;39.91;101637.06;5006862;28;20144;-66
2022/09/04 11:23:17;;;;;;;3.78;2.10;;;;;;;30.50;37.43;101626.94;5021830;28;20045;-66
2022/09/04 11:26:04;;;;;;;3.10;2.17;;;;;;;30.92;39.97;101636.66;5028731;28;20512;-66
2022/09/04 11:28:54;;;;;;;4.28;2.30;;;;;;;30.86;37.00;101626.28;5027954;28;20091;-68
2022/09/04 11:31:23;;;;;;;3.35;2.63;;;;;;;30.95;35.97;101621.25;5028015;28;20041;-67
2022/09/04 11:34:03;;;;;;;3.22;2.00;;;;;;;31.21;35.81;101623.88;5015349;28;20034;-66
2022/09/04 11:36:47;;;;;;;4.70;2.35;;;;;;;31.55;37.25;101632.03;5009330;28;20130;-65
2022/09/04 11:39:39;;;;;;;5.35;2.08;;;;;;;31.67;37.18;101625.44;5008698;28;20108;-66
2022/09/04 11:42:28;;;;;;;5.78;2.47;;;;;;;31.40;36.18;101638.03;5008567;28;20042;-65
2022/09/04 11:45:15;;;;;;;5.72;2.55;;;;;;;31.13;37.83;101640.16;5010105;28;20042;-65
2022/09/04 11:48:15;;;;;;;4.65;2.38;;;;;;;30.93;37.87;101634.69;5023397;28;20037;-65
2022/09/04 11:50:53;;;;;;;4.95;2.53;;;;;;;30.49;35.37;101642.91;5008312;28;20577;-65
2022/09/04 11:53:42;;;;;;;3.97;2.40;;;;;;;30.02;36.86;101634.84;5023981;28;20689;-67
2022/09/04 11:56:17;;;;;;;4.43;2.80;;;;;;;29.72;36.28;101638.19;5027478;28;20481;-65
2022/09/04 11:59:26;;;;;;;4.90;2.45;;;;;;;29.97;38.16;101642.00;5027876;28;20038;-66
2022/09/04 12:02:14;;;;;;;2.83;2.42;;;;;;;29.98;37.65;101643.75;5027804;28;20488;-65
2022/09/04 12:04:46;;;;;;;6.60;2.40;;;;;;;29.84;35.07;101639.22;5008045;28;20585;-65
2022/09/04 12:07:42;;;;;;;4.55;2.58;;;;;;;29.95;36.26;101632.94;5008247;28;20113;-65
2022/09/04 12:10:30;;;;;;;8.23;3.05;;;;;;;30.29;37.20;101635.66;5008635;28;20048;-65
2022/09/04 12:13:04;;;;;;;4.97;2.67;;;;;;;30.48;36.10;101641.19;5011230;28;20033;-66
2022/09/04 12:15:43;;;;;;;4.97;2.28;;;;;;;30.60;36.14;101646.13;5026770;28;20087;-68
2022/09/04 12:18:28;;;;;;;7.30;2.75;;;;;;;30.70;35.94;101644.53;5036787;28;20091;-65
2022/09/04 12:21:21;;;;;;;4.78;2.42;;;;;;;30.71;35.39;101651.91;5029609;28;20048;-66
2022/09/04 12:24:21;;;;;;;3.80;2.35;;;;;;;30.52;34.95;101655.66;5026969;28;20045;-65
2022/09/04 12:27:19;;;;;;;4.95;2.80;;;;;;;29.77;36.15;101646.81;5027560;28;20033;-66
2022/09/04 12:30:22;;;;;;;4.63;2.53;;;;;;;29.77;36.41;101655.22;5008445;28;20592;-68
2022/09/04 12:33:09;;;;;;;5.10;3.22;;;;;;;29.79;36.97;101655.84;5020651;28;20058;-65
2022/09/04 12:36:13;;;;;;;4.75;2.63;;;;;;;30.12;36.98;101654.91;5007861;28;20055;-65
2022/09/04 12:39:04;;;;;;;3.45;2.28;;;;;;;30.31;34.60;101636.28;5007476;28;20430;-65
2022/09/04 12:41:40;;;;;;;4.65;2.20;;;;;;;30.53;35.62;101648.94;5008452;28;20511;-66
2022/09/04 12:44:32;;;;;;;7.10;2.25;;;;;;;30.62;34.68;101650.41;5007759;28;20046;-66
2022/09/04 12:47:12;;;;;;;3.65;2.33;;;;;;;30.76;34.56;101654.03;5025406;28;20120;-65